createdAt,value
2023-04-26T00:02:21.184Z,22.76
2023-04-26T00:04:47.885Z,22.75
2023-04-26T00:07:14.510Z,22.79
2023-04-26T00:09:41.009Z,22.85
2023-04-26T00:12:07.511Z,22.77
2023-04-26T00:14:34.016Z,22.73
2023-04-26T00:17:00.522Z,22.79
2023-04-26T00:19:27.009Z,22.79
2023-04-26T00:21:53.549Z,22.74
2023-04-26T00:24:20.085Z,22.75
2023-04-26T00:26:46.557Z,22.76
2023-04-26T00:29:13.046Z,22.81
2023-04-26T00:31:39.588Z,22.73
2023-04-26T00:34:06.093Z,22.73
2023-04-26T00:36:32.576Z,22.69
2023-04-26T00:38:59.075Z,22.76
2023-04-26T00:41:25.539Z,22.72
2023-04-26T00:43:52.074Z,22.71
2023-04-26T00:46:18.681Z,22.70
2023-04-26T00:48:45.143Z,22.75
2023-04-26T00:51:11.659Z,22.72
2023-04-26T00:53:38.245Z,22.75
2023-04-26T00:56:04.916Z,22.79
2023-04-26T00:58:31.524Z,22.67
2023-04-26T01:00:58.078Z,22.71
2023-04-26T01:03:24.806Z,22.75
2023-04-26T01:05:51.521Z,22.68
2023-04-26T01:08:18.034Z,22.67
2023-04-26T01:10:44.512Z,22.73
2023-04-26T01:13:10.991Z,22.69
2023-04-26T01:15:37.539Z,22.62
2023-04-26T01:18:04.038Z,22.69
2023-04-26T01:20:30.595Z,22.65
2023-04-26T01:22:57.131Z,22.63
2023-04-26T01:25:23.610Z,22.66
2023-04-26T01:27:50.152Z,22.67
2023-04-26T01:30:16.648Z,22.65
2023-04-26T01:32:46.248Z,22.71
2023-04-26T01:35:12.675Z,22.69
2023-04-26T01:37:39.138Z,22.66
2023-04-26T01:40:05.631Z,22.66
2023-04-26T01:42:32.148Z,22.67
2023-04-26T01:44:58.604Z,22.71
2023-04-26T01:47:25.042Z,22.70
2023-04-26T01:49:51.556Z,22.62
2023-04-26T01:52:17.997Z,22.71
2023-04-26T01:54:44.536Z,22.73
2023-04-26T01:57:11.109Z,22.58
2023-04-26T01:59:37.630Z,22.72
2023-04-26T02:02:04.157Z,22.69
2023-04-26T02:04:30.719Z,22.68
2023-04-26T02:06:57.333Z,22.78
2023-04-26T02:09:23.975Z,22.70
2023-04-26T02:11:50.429Z,22.72
2023-04-26T02:14:16.866Z,22.60
2023-04-26T02:16:43.365Z,22.65
2023-04-26T02:19:09.894Z,22.61
2023-04-26T02:21:36.441Z,22.61
2023-04-26T02:24:02.979Z,22.67
2023-04-26T02:26:29.509Z,22.66
2023-04-26T02:28:55.977Z,22.65
2023-04-26T02:31:23.246Z,22.68
2023-04-26T02:33:49.996Z,22.66
2023-04-26T02:36:16.464Z,22.63
2023-04-26T02:38:42.964Z,22.66
2023-04-26T02:41:09.520Z,22.62
2023-04-26T02:43:36.074Z,22.63
2023-04-26T02:46:02.585Z,22.54
2023-04-26T02:48:29.160Z,22.60
2023-04-26T02:50:55.694Z,22.57
2023-04-26T02:53:22.232Z,22.53
2023-04-26T02:55:48.761Z,22.55
2023-04-26T02:58:15.287Z,22.60
2023-04-26T03:00:41.788Z,22.56
2023-04-26T03:03:08.554Z,22.59
2023-04-26T03:05:35.198Z,22.60
2023-04-26T03:08:01.779Z,22.54
2023-04-26T03:10:28.392Z,22.50
2023-04-26T03:12:54.987Z,22.50
2023-04-26T03:15:21.519Z,22.55
2023-04-26T03:17:48.050Z,22.58
2023-04-26T03:20:14.678Z,22.56
2023-04-26T03:22:41.188Z,22.55
2023-04-26T03:25:07.750Z,22.61
2023-04-26T03:27:34.254Z,22.62
2023-04-26T03:30:00.726Z,22.56
2023-04-26T03:32:27.291Z,22.50
2023-04-26T03:34:53.906Z,22.58
2023-04-26T03:37:20.344Z,22.65
2023-04-26T03:39:46.767Z,22.58
2023-04-26T03:42:13.275Z,22.58
2023-04-26T03:44:39.744Z,22.52
2023-04-26T03:47:06.233Z,22.50
2023-04-26T03:49:32.705Z,22.54
2023-04-26T03:51:59.314Z,22.53
2023-04-26T03:54:25.836Z,22.56
2023-04-26T03:56:52.321Z,22.65
2023-04-26T03:59:18.931Z,22.55
2023-04-26T04:01:45.416Z,22.53
2023-04-26T04:04:12.185Z,22.59
2023-04-26T04:06:38.900Z,22.50
2023-04-26T04:09:05.433Z,22.50
2023-04-26T04:11:31.911Z,22.57
2023-04-26T04:13:58.440Z,22.54
2023-04-26T04:16:25.040Z,22.58
2023-04-26T04:18:51.900Z,22.55
2023-04-26T04:21:18.584Z,22.53
2023-04-26T04:23:45.071Z,22.53
2023-04-26T04:26:11.534Z,22.54
2023-04-26T04:28:38.049Z,22.59
2023-04-26T04:31:04.602Z,22.50
2023-04-26T04:33:31.144Z,22.48
2023-04-26T04:35:57.686Z,22.55
2023-04-26T04:38:24.087Z,22.54
2023-04-26T04:40:50.547Z,22.49
2023-04-26T04:43:17.084Z,22.50
2023-04-26T04:45:43.591Z,22.53
2023-04-26T04:48:10.089Z,22.51
2023-04-26T04:50:36.581Z,22.57
2023-04-26T04:53:03.129Z,22.54
2023-04-26T04:55:29.708Z,22.54
2023-04-26T04:57:56.135Z,22.55
2023-04-26T05:00:22.584Z,22.56
2023-04-26T05:02:49.230Z,22.58
2023-04-26T05:05:15.913Z,22.61
2023-04-26T05:07:42.508Z,22.61
2023-04-26T05:10:08.981Z,22.63
2023-04-26T05:12:35.488Z,22.62
2023-04-26T05:15:01.965Z,22.68
2023-04-26T05:17:28.457Z,22.62
2023-04-26T05:19:55.012Z,22.62
2023-04-26T05:22:21.490Z,22.68
2023-04-26T05:24:48.024Z,22.73
2023-04-26T05:27:14.620Z,22.70
2023-04-26T05:29:41.133Z,22.80
2023-04-26T05:32:07.698Z,22.78
2023-04-26T05:34:34.250Z,22.77
2023-04-26T05:37:00.748Z,22.71
2023-04-26T05:39:27.232Z,22.76
2023-04-26T05:41:53.727Z,22.77
2023-04-26T05:44:20.308Z,22.84
2023-04-26T05:46:46.808Z,22.84
2023-04-26T05:49:13.336Z,22.84
2023-04-26T05:51:39.786Z,22.79
2023-04-26T05:54:06.292Z,22.83
2023-04-26T05:56:32.768Z,22.84
2023-04-26T05:58:59.363Z,22.92
2023-04-26T06:01:25.825Z,22.89
2023-04-26T06:03:54.369Z,22.85
2023-04-26T06:06:22.638Z,22.81
2023-04-26T06:08:49.116Z,22.87
2023-04-26T06:11:15.696Z,22.87
2023-04-26T06:13:42.204Z,22.74
2023-04-26T06:16:08.685Z,22.77
2023-04-26T06:18:35.142Z,22.78
2023-04-26T06:21:01.666Z,22.71
2023-04-26T06:23:28.183Z,22.74
2023-04-26T06:25:54.656Z,22.72
2023-04-26T06:28:21.137Z,22.83
2023-04-26T06:30:47.622Z,22.75
2023-04-26T06:33:14.241Z,22.78
2023-04-26T06:35:40.747Z,22.79
2023-04-26T06:38:07.273Z,22.84
2023-04-26T06:40:33.784Z,22.77
2023-04-26T06:43:00.209Z,22.82
2023-04-26T06:45:26.743Z,22.67
2023-04-26T06:47:53.250Z,22.78
2023-04-26T06:50:19.766Z,22.78
2023-04-26T06:52:46.271Z,22.83
2023-04-26T06:55:12.757Z,22.88
2023-04-26T06:57:40.299Z,22.84
2023-04-26T07:00:06.810Z,22.83
2023-04-26T07:02:33.378Z,22.80
2023-04-26T07:04:59.965Z,22.81
2023-04-26T07:07:26.577Z,22.85
2023-04-26T07:09:53.062Z,22.86
2023-04-26T07:12:19.482Z,22.88
2023-04-26T07:14:45.965Z,22.88
2023-04-26T07:17:12.566Z,22.81
2023-04-26T07:19:39.087Z,22.80
2023-04-26T07:22:05.579Z,22.81
2023-04-26T07:24:32.000Z,22.81
2023-04-26T07:26:58.496Z,22.92
2023-04-26T07:29:25.043Z,22.97
2023-04-26T07:31:51.552Z,23.00
2023-04-26T07:34:17.998Z,23.02
2023-04-26T07:36:44.436Z,22.95
2023-04-26T07:39:10.895Z,22.99
2023-04-26T07:41:37.380Z,22.95
2023-04-26T07:44:05.079Z,22.91
2023-04-26T07:46:31.594Z,22.94
2023-04-26T07:48:58.097Z,22.92
2023-04-26T07:51:24.522Z,22.93
2023-04-26T07:53:51.168Z,22.98
2023-04-26T07:56:17.783Z,23.02
2023-04-26T07:58:44.279Z,23.09
2023-04-26T08:01:10.803Z,23.12
2023-04-26T08:03:37.604Z,23.12
2023-04-26T08:06:04.384Z,23.10
2023-04-26T08:08:30.862Z,23.08
2023-04-26T08:10:57.373Z,23.13
2023-04-26T08:13:24.128Z,23.14
2023-04-26T08:15:51.678Z,23.10
2023-04-26T08:18:18.289Z,23.16
2023-04-26T08:20:44.738Z,23.08
2023-04-26T08:23:11.285Z,23.16
2023-04-26T08:25:37.808Z,23.11
2023-04-26T08:28:04.360Z,23.18
2023-04-26T08:30:30.844Z,23.16
2023-04-26T08:32:57.419Z,23.18
2023-04-26T08:35:23.922Z,23.15
2023-04-26T08:37:50.363Z,23.18
2023-04-26T08:40:16.857Z,23.17
2023-04-26T08:42:43.329Z,23.27
2023-04-26T08:45:09.761Z,23.27
2023-04-26T08:47:36.300Z,23.27
2023-04-26T08:52:29.309Z,23.28
2023-04-26T08:54:55.836Z,23.30
2023-04-26T08:57:22.287Z,23.25
2023-04-26T08:59:48.771Z,23.23
2023-04-26T09:02:15.306Z,23.30
2023-04-26T09:07:08.619Z,23.32
2023-04-26T09:09:35.123Z,23.31
2023-04-26T09:12:01.593Z,23.24
2023-04-26T09:14:28.169Z,23.32
2023-04-26T09:16:54.609Z,23.32
2023-04-26T09:19:21.173Z,23.27
2023-04-26T09:21:47.705Z,23.33
2023-04-26T09:24:14.149Z,23.26
2023-04-26T09:26:40.619Z,23.36
2023-04-26T09:29:07.142Z,23.34
2023-04-26T09:34:00.136Z,23.25
2023-04-26T09:38:53.224Z,23.22
2023-04-26T09:41:19.840Z,23.35
2023-04-26T09:43:46.282Z,23.31
2023-04-26T09:46:12.769Z,23.35
2023-04-26T09:48:39.244Z,23.34
2023-04-26T09:51:05.649Z,23.36
2023-04-26T09:53:32.143Z,23.28
2023-04-26T09:55:58.707Z,23.30
2023-04-26T09:58:25.134Z,23.39
2023-04-26T10:00:51.755Z,23.35
2023-04-26T10:03:18.468Z,23.38
2023-04-26T10:05:45.189Z,23.38
2023-04-26T10:08:11.708Z,23.41
2023-04-26T10:10:38.509Z,23.46
2023-04-26T10:13:05.069Z,23.48
2023-04-26T10:15:31.513Z,23.55
2023-04-26T10:17:57.977Z,23.50
2023-04-26T10:20:24.460Z,23.54
2023-04-26T10:22:50.966Z,23.53
2023-04-26T10:25:17.489Z,23.49
2023-04-26T10:27:44.004Z,23.53
2023-04-26T10:30:10.452Z,23.57
2023-04-26T10:32:36.938Z,23.52
2023-04-26T10:35:03.368Z,23.52
2023-04-26T10:37:29.838Z,23.54
2023-04-26T10:39:56.334Z,23.43
2023-04-26T10:42:24.141Z,23.38
2023-04-26T10:44:51.532Z,23.43
2023-04-26T10:47:18.066Z,23.39
2023-04-26T10:49:44.663Z,23.44
2023-04-26T10:52:11.273Z,23.51
2023-04-26T10:54:37.877Z,23.51
2023-04-26T10:57:04.390Z,23.54
2023-04-26T10:59:43.188Z,23.34
2023-04-26T11:02:10.725Z,23.44
2023-04-26T11:04:37.300Z,23.45
2023-04-26T11:07:04.038Z,23.44
2023-04-26T11:09:30.541Z,23.32
2023-04-26T11:11:56.991Z,23.07
2023-04-26T11:14:26.013Z,23.23
2023-04-26T11:16:54.564Z,23.22
2023-04-26T11:19:21.201Z,23.31
2023-04-26T11:21:47.741Z,23.19
2023-04-26T11:24:14.246Z,23.17
2023-04-26T11:26:40.879Z,23.15
2023-04-26T11:29:07.395Z,23.11
2023-04-26T11:31:33.972Z,23.00
2023-04-26T11:34:00.540Z,23.00
2023-04-26T11:36:27.111Z,23.07
2023-04-26T11:38:53.759Z,23.17
2023-04-26T11:41:20.357Z,23.26
2023-04-26T11:43:47.136Z,23.38
2023-04-26T11:46:13.688Z,23.40
2023-04-26T11:48:40.192Z,23.54
2023-04-26T11:51:06.839Z,23.58
2023-04-26T11:53:33.362Z,23.53
2023-04-26T11:55:59.901Z,23.52
2023-04-26T11:58:26.395Z,23.41
2023-04-26T12:00:52.832Z,23.50
2023-04-26T12:03:19.522Z,23.74
2023-04-26T12:05:46.126Z,23.85
2023-04-26T12:08:12.735Z,23.92
2023-04-26T12:10:39.304Z,23.90
2023-04-26T12:13:05.844Z,24.00
2023-04-26T12:15:32.441Z,24.07
2023-04-26T12:17:59.016Z,23.97
2023-04-26T12:20:25.534Z,23.50
2023-04-26T12:22:52.027Z,23.35
2023-04-26T12:25:18.491Z,23.41
2023-04-26T12:27:45.073Z,23.41
2023-04-26T12:30:11.647Z,23.71
2023-04-26T12:32:38.203Z,23.81
2023-04-26T12:35:04.727Z,23.97
2023-04-26T12:37:31.191Z,23.95
2023-04-26T12:39:57.753Z,23.92
2023-04-26T12:42:24.299Z,24.02
2023-04-26T12:44:50.766Z,24.05
2023-04-26T12:47:17.426Z,24.14
2023-04-26T12:49:43.905Z,24.06
2023-04-26T12:52:10.388Z,23.97
2023-04-26T12:54:37.013Z,24.12
2023-04-26T12:57:03.588Z,24.20
2023-04-26T12:59:30.089Z,24.10
2023-04-26T13:01:56.712Z,24.15
2023-04-26T13:04:23.579Z,24.23
2023-04-26T13:06:50.246Z,24.24
2023-04-26T13:09:16.794Z,24.16
2023-04-26T13:11:43.372Z,24.12
2023-04-26T13:14:09.905Z,24.35
2023-04-26T13:16:36.491Z,24.39
2023-04-26T13:19:03.220Z,24.46
2023-04-26T13:21:29.823Z,24.53
2023-04-26T13:23:56.412Z,24.50
2023-04-26T13:26:22.924Z,24.61
2023-04-26T13:28:49.491Z,24.58
2023-04-26T13:31:16.122Z,24.65
2023-04-26T13:33:42.635Z,24.53
2023-04-26T13:36:09.138Z,24.67
2023-04-26T13:38:35.699Z,24.45
2023-04-26T13:41:02.215Z,24.68
2023-04-26T13:43:28.735Z,24.73
2023-04-26T13:45:55.325Z,24.77
2023-04-26T13:48:22.023Z,24.60
2023-04-26T13:50:48.546Z,24.65
2023-04-26T13:53:15.047Z,24.62
2023-04-26T13:55:41.484Z,24.72
2023-04-26T13:58:07.946Z,24.70
2023-04-26T14:00:34.464Z,24.66
2023-04-26T14:03:01.160Z,24.59
2023-04-26T14:05:27.692Z,24.66
2023-04-26T14:07:55.295Z,24.51
2023-04-26T14:10:21.888Z,24.47
2023-04-26T14:12:48.338Z,24.59
2023-04-26T14:15:14.832Z,24.65
2023-04-26T14:17:41.340Z,24.67
2023-04-26T14:20:07.831Z,24.67
2023-04-26T14:22:34.327Z,24.66
2023-04-26T14:25:00.849Z,24.89
2023-04-26T14:27:27.376Z,24.82
2023-04-26T14:29:53.982Z,24.85
2023-04-26T14:32:20.496Z,24.89
2023-04-26T14:34:47.003Z,24.84
2023-04-26T14:37:13.504Z,24.77
2023-04-26T14:39:40.065Z,24.78
2023-04-26T14:42:06.644Z,24.86
2023-04-26T14:44:33.122Z,24.70
2023-04-26T14:46:59.644Z,24.55
2023-04-26T14:49:26.290Z,24.35
2023-04-26T14:51:53.701Z,24.34
2023-04-26T14:54:20.420Z,24.27
2023-04-26T14:56:46.932Z,24.20
2023-04-26T14:59:13.446Z,24.24
2023-04-26T15:01:39.988Z,24.14
2023-04-26T15:04:06.604Z,24.12
2023-04-26T15:06:33.284Z,24.02
2023-04-26T15:08:59.895Z,24.11
2023-04-26T15:11:26.423Z,23.99
2023-04-26T15:13:52.947Z,23.96
2023-04-26T15:16:19.484Z,24.01
2023-04-26T15:18:46.018Z,23.98
2023-04-26T15:21:12.706Z,23.87
2023-04-26T15:23:39.283Z,23.86
2023-04-26T15:26:05.827Z,23.81
2023-04-26T15:28:32.337Z,23.90
2023-04-26T15:30:58.892Z,23.80
2023-04-26T15:33:25.379Z,23.81
2023-04-26T15:35:51.825Z,23.75
2023-04-26T15:38:18.356Z,23.68
2023-04-26T15:40:44.906Z,23.80
2023-04-26T15:43:11.378Z,23.78
2023-04-26T15:45:37.891Z,23.72
2023-04-26T15:48:04.429Z,23.71
2023-04-26T15:50:30.967Z,23.61
2023-04-26T15:52:57.485Z,23.47
2023-04-26T15:55:23.997Z,23.51
2023-04-26T15:57:50.422Z,23.55
2023-04-26T16:00:16.899Z,23.45
2023-04-26T16:02:43.564Z,23.52
2023-04-26T16:05:10.202Z,23.50
2023-04-26T16:07:36.774Z,23.52
2023-04-26T16:10:03.281Z,23.30
2023-04-26T16:12:29.789Z,23.33
2023-04-26T16:14:56.286Z,23.40
2023-04-26T16:17:22.789Z,23.38
2023-04-26T16:19:49.314Z,23.52
2023-04-26T16:22:15.893Z,23.35
2023-04-26T16:24:42.478Z,23.35
2023-04-26T16:27:09.025Z,23.35
2023-04-26T16:29:35.745Z,23.26
2023-04-26T16:34:28.702Z,23.28
2023-04-26T16:36:55.249Z,23.23
2023-04-26T16:39:21.694Z,23.28
2023-04-26T16:41:48.223Z,23.26
2023-04-26T16:44:14.757Z,23.26
2023-04-26T16:46:41.302Z,23.23
2023-04-26T16:49:07.925Z,23.23
2023-04-26T16:51:34.523Z,23.20
2023-04-26T16:54:01.124Z,23.19
2023-04-26T16:56:27.640Z,23.19
2023-04-26T16:58:54.221Z,23.19
2023-04-26T17:01:20.785Z,23.20
2023-04-26T17:03:47.636Z,23.21
2023-04-26T17:06:14.227Z,23.24
2023-04-26T17:08:40.735Z,23.16
2023-04-26T17:11:07.305Z,23.15
2023-04-26T17:13:33.832Z,23.06
2023-04-26T17:16:00.312Z,23.06
2023-04-26T17:18:26.852Z,23.07
2023-04-26T17:20:53.370Z,23.13
2023-04-26T17:23:20.119Z,23.13
2023-04-26T17:25:47.641Z,23.14
2023-04-26T17:28:14.427Z,23.08
2023-04-26T17:30:40.910Z,23.13
2023-04-26T17:33:07.557Z,23.06
2023-04-26T17:35:34.265Z,23.12
2023-04-26T17:38:00.735Z,23.09
2023-04-26T17:40:27.216Z,23.18
2023-04-26T17:42:53.659Z,23.20
2023-04-26T17:45:20.083Z,23.16
2023-04-26T17:47:46.531Z,23.15
2023-04-26T17:50:13.027Z,23.14
2023-04-26T17:52:39.572Z,23.11
2023-04-26T17:55:06.069Z,23.13
2023-04-26T17:57:32.602Z,23.05
2023-04-26T17:59:59.080Z,23.04
2023-04-26T18:02:25.710Z,23.08
2023-04-26T18:04:52.498Z,23.10
2023-04-26T18:07:19.285Z,23.02
2023-04-26T18:09:45.815Z,23.01
2023-04-26T18:12:12.359Z,23.09
2023-04-26T18:14:38.863Z,23.04
2023-04-26T18:17:05.462Z,23.05
2023-04-26T18:19:32.051Z,23.06
2023-04-26T18:21:58.519Z,23.07
2023-04-26T18:24:25.003Z,23.06
2023-04-26T18:26:51.410Z,23.00
2023-04-26T18:29:17.933Z,23.01
2023-04-26T18:31:44.420Z,22.94
2023-04-26T18:34:10.968Z,22.99
2023-04-26T18:36:37.492Z,22.93
2023-04-26T18:39:04.013Z,22.89
2023-04-26T18:41:30.472Z,22.83
2023-04-26T18:43:57.150Z,22.80
2023-04-26T18:46:23.721Z,22.78
2023-04-26T18:48:50.232Z,22.79
2023-04-26T18:51:16.704Z,22.82
2023-04-26T18:53:43.127Z,22.90
2023-04-26T18:56:09.653Z,23.00
2023-04-26T18:58:36.226Z,23.03
2023-04-26T19:01:03.213Z,23.09
2023-04-26T19:03:29.771Z,23.08
2023-04-26T19:05:56.362Z,23.05
2023-04-26T19:08:22.866Z,23.11
2023-04-26T19:10:49.359Z,23.06
2023-04-26T19:13:15.870Z,23.05
2023-04-26T19:15:42.381Z,23.07
2023-04-26T19:18:08.933Z,23.07
2023-04-26T19:20:35.455Z,23.10
2023-04-26T19:23:01.987Z,23.17
2023-04-26T19:25:28.532Z,23.17
2023-04-26T19:27:55.111Z,23.17
2023-04-26T19:30:21.580Z,23.23
2023-04-26T19:32:48.150Z,23.23
2023-04-26T19:35:14.767Z,23.25
2023-04-26T19:37:41.336Z,23.21
2023-04-26T19:40:07.770Z,23.34
2023-04-26T19:42:34.227Z,23.29
2023-04-26T19:45:00.760Z,23.25
2023-04-26T19:47:27.392Z,23.22
2023-04-26T19:49:53.875Z,23.28
2023-04-26T19:52:20.434Z,23.25
2023-04-26T19:54:46.869Z,23.20
2023-04-26T19:57:13.410Z,23.25
2023-04-26T19:59:39.972Z,23.20
2023-04-26T20:04:33.512Z,23.23
2023-04-26T20:07:00.146Z,23.10
2023-04-26T20:09:26.794Z,23.14
2023-04-26T20:11:53.352Z,23.18
2023-04-26T20:14:19.814Z,23.18
2023-04-26T20:16:46.367Z,23.13
2023-04-26T20:19:13.219Z,23.18
2023-04-26T20:21:39.736Z,23.24
2023-04-26T20:24:06.280Z,23.16
2023-04-26T20:26:32.773Z,23.18
2023-04-26T20:28:59.295Z,23.14
2023-04-26T20:31:25.980Z,23.17
2023-04-26T20:33:52.566Z,23.19
2023-04-26T20:36:19.069Z,23.08
2023-04-26T20:38:45.646Z,23.10
2023-04-26T20:41:12.199Z,23.16
2023-04-26T20:43:38.737Z,23.16
2023-04-26T20:46:05.398Z,23.13
2023-04-26T20:48:31.904Z,23.12
2023-04-26T20:50:58.527Z,23.12
2023-04-26T20:53:25.221Z,23.17
2023-04-26T20:55:51.739Z,23.15
2023-04-26T20:58:18.322Z,23.11
2023-04-26T21:00:44.964Z,23.19
2023-04-26T21:03:11.620Z,23.16
2023-04-26T21:05:38.159Z,23.13
2023-04-26T21:08:04.752Z,23.19
2023-04-26T21:10:31.218Z,23.15
2023-04-26T21:12:57.779Z,23.11
2023-04-26T21:15:24.345Z,23.16
2023-04-26T21:17:50.963Z,23.15
2023-04-26T21:20:17.528Z,23.15
2023-04-26T21:22:44.077Z,23.14
2023-04-26T21:25:10.650Z,23.08
2023-04-26T21:27:37.162Z,23.14
2023-04-26T21:30:03.665Z,23.16
2023-04-26T21:32:30.176Z,23.08
2023-04-26T21:34:56.807Z,23.06
2023-04-26T21:37:23.361Z,23.10
2023-04-26T21:39:49.882Z,23.06
2023-04-26T21:42:16.452Z,23.10
2023-04-26T21:44:43.032Z,23.11
2023-04-26T21:47:09.707Z,23.09
2023-04-26T21:49:36.367Z,23.17
2023-04-26T21:52:02.869Z,23.15
2023-04-26T21:54:29.376Z,23.10
2023-04-26T21:56:55.989Z,23.08
2023-04-26T21:59:22.553Z,23.11
2023-04-26T22:01:49.116Z,23.08
2023-04-26T22:04:15.982Z,23.08
2023-04-26T22:06:42.604Z,23.04
2023-04-26T22:09:09.544Z,23.10
2023-04-26T22:11:36.321Z,23.07
2023-04-26T22:14:02.794Z,23.07
2023-04-26T22:16:29.387Z,23.05
2023-04-26T22:18:56.072Z,23.07
2023-04-26T22:21:22.717Z,23.06
2023-04-26T22:23:49.228Z,23.06
2023-04-26T22:26:15.760Z,23.15
2023-04-26T22:28:42.362Z,23.08
2023-04-26T22:31:08.962Z,23.06
2023-04-26T22:33:35.495Z,23.05
2023-04-26T22:36:01.995Z,23.08
2023-04-26T22:38:28.471Z,23.06
2023-04-26T22:40:55.073Z,23.07
2023-04-26T22:43:21.610Z,22.98
2023-04-26T22:45:48.223Z,23.01
2023-04-26T22:48:14.818Z,22.95
2023-04-26T22:50:41.311Z,23.00
2023-04-26T22:53:07.793Z,22.93
2023-04-26T22:55:34.285Z,23.03
2023-04-26T22:58:00.829Z,23.03
2023-04-26T23:00:27.404Z,23.04
2023-04-26T23:02:54.022Z,23.02
2023-04-26T23:05:20.628Z,23.01
2023-04-26T23:07:47.149Z,23.03
2023-04-26T23:10:13.625Z,22.91
2023-04-26T23:12:40.121Z,23.00
2023-04-26T23:15:06.651Z,23.02
2023-04-26T23:17:33.219Z,23.00
2023-04-26T23:19:59.722Z,23.02
2023-04-26T23:22:26.256Z,22.96
2023-04-26T23:24:52.835Z,23.03
2023-04-26T23:27:19.512Z,22.98
2023-04-26T23:29:46.065Z,22.90
2023-04-26T23:32:12.626Z,23.00
2023-04-26T23:34:39.204Z,22.93
2023-04-26T23:37:07.135Z,22.95
2023-04-26T23:39:34.573Z,22.95
2023-04-26T23:42:01.121Z,22.97
2023-04-26T23:44:27.652Z,22.97
2023-04-26T23:46:54.298Z,22.99
2023-04-26T23:49:20.867Z,22.91
2023-04-26T23:51:47.393Z,22.91
2023-04-26T23:54:13.896Z,22.89
2023-04-26T23:56:40.591Z,22.95
2023-04-26T23:59:07.119Z,22.94
